Time;durP1;ratioP1;P1;durP2;ratioP2;P2;SDS_P1;SDS_P2;PMS_P1;PMS_P2;Temp;Humidity;BMP_temperature;BMP_pressure;BME280_temperature;BME280_humidity;BME280_pressure;Samples;Min_cycle;Max_cycle;Signal;HPM_P1;HPM_P2
2022/01/20 00:00:02;;;;;;;81.10;47.53;;;2.90;99.90;;;;;;4960753;28;20022;-76
2022/01/20 00:02:30;;;;;;;80.30;48.20;;;2.80;99.90;;;;;;4960713;28;20015;-76
2022/01/20 00:05:24;;;;;;;84.27;48.13;;;2.90;99.90;;;;;;4959538;28;20493;-75
2022/01/20 00:27:08;;;;;;;103.47;56.40;;;3.20;99.90;;;;;;4975171;28;20069;-73
2022/01/20 00:30:00;;;;;;;107.37;56.47;;;3.30;99.90;;;;;;4972709;28;20045;-73
2022/01/20 00:32:25;;;;;;;112.83;58.57;;;3.30;99.90;;;;;;4973808;28;20082;-73
2022/01/20 00:37:29;;;;;;;116.47;60.03;;;3.50;99.90;;;;;;4973832;28;20078;-73
2022/01/20 00:39:55;;;;;;;109.25;57.25;;;3.60;99.90;;;;;;4973943;28;20023;-73
2022/01/20 00:42:21;;;;;;;101.10;53.97;;;3.80;99.90;;;;;;4973080;28;20023;-74
2022/01/20 00:44:48;;;;;;;86.00;48.97;;;3.80;99.90;;;;;;4975251;28;20023;-73
2022/01/20 00:47:14;;;;;;;80.43;46.80;;;3.60;99.90;;;;;;4975510;28;20027;-73
2022/01/20 00:49:41;;;;;;;81.60;47.67;;;3.60;99.90;;;;;;4975418;28;20027;-73
2022/01/20 00:52:08;;;;;;;81.00;46.77;;;3.50;99.90;;;;;;4975233;28;20385;-73
2022/01/20 00:54:34;;;;;;;86.00;47.67;;;3.50;99.90;;;;;;4974861;28;20515;-73
2022/01/20 00:57:01;;;;;;;83.03;49.03;;;3.50;99.90;;;;;;4975317;28;20015;-73
2022/01/20 00:59:28;;;;;;;86.13;49.77;;;3.40;99.90;;;;;;4975234;28;20034;-73
2022/01/20 01:01:54;;;;;;;81.73;47.90;;;3.40;99.90;;;;;;4975104;28;20025;-74
2022/01/20 01:04:20;;;;;;;76.77;48.33;;;3.40;99.90;;;;;;4974043;28;20054;-74
2022/01/20 01:07:14;;;;;;;84.20;46.97;;;3.40;99.90;;;;;;4974989;28;20081;-74
2022/01/20 01:09:39;;;;;;;70.83;44.13;;;3.40;99.90;;;;;;4974777;28;20027;-74
2022/01/20 01:12:09;;;;;;;74.07;44.53;;;3.40;99.90;;;;;;4973712;28;20027;-74
2022/01/20 01:14:35;;;;;;;74.70;44.97;;;3.40;99.90;;;;;;4973599;28;20391;-73
2022/01/20 01:22:21;;;;;;;75.53;44.80;;;3.30;99.90;;;;;;4974987;28;20061;-73
2022/01/20 01:24:51;;;;;;;76.33;44.87;;;3.30;99.90;;;;;;4974704;28;20106;-73
2022/01/20 01:27:18;;;;;;;74.40;45.30;;;3.30;99.90;;;;;;4973396;28;20034;-73
2022/01/20 01:32:29;;;;;;;75.20;45.47;;;3.30;99.90;;;;;;4974476;28;20085;-74
2022/01/20 01:34:54;;;;;;;72.13;45.30;;;3.30;99.90;;;;;;4974349;28;20046;-73
2022/01/20 01:39:55;;;;;;;74.37;43.43;;;3.30;99.90;;;;;;4974186;28;20292;-74
2022/01/20 01:42:27;;;;;;;74.33;44.17;;;3.30;99.90;;;;;;4973236;28;20038;-73
2022/01/20 01:44:53;;;;;;;73.90;45.30;;;3.30;99.90;;;;;;4974245;28;20484;-73
2022/01/20 01:47:19;;;;;;;73.63;47.23;;;3.30;99.90;;;;;;4974369;28;20485;-73
2022/01/20 01:49:44;;;;;;;77.93;45.27;;;3.20;99.90;;;;;;4973987;28;20031;-74
2022/01/20 01:52:10;;;;;;;75.03;43.57;;;3.20;99.90;;;;;;4974150;28;20022;-73
2022/01/20 01:54:36;;;;;;;77.17;45.47;;;3.20;99.90;;;;;;4973999;28;20023;-73
2022/01/20 01:57:06;;;;;;;75.33;44.40;;;3.30;99.90;;;;;;4974044;28;20027;-73
2022/01/20 01:59:32;;;;;;;76.40;44.23;;;3.20;99.90;;;;;;4972707;28;20086;-73
2022/01/20 02:01:58;;;;;;;67.77;42.27;;;3.20;99.90;;;;;;4972916;28;20047;-73
2022/01/20 02:04:24;;;;;;;71.17;43.53;;;3.20;99.90;;;;;;4973984;28;20390;-74
2022/01/20 02:17:51;;;;;;;74.25;42.28;;;3.20;99.90;;;;;;4972450;28;20477;-74
2022/01/20 02:20:43;;;;;;;70.23;44.27;;;3.20;99.90;;;;;;4973933;28;20022;-77
2022/01/20 02:23:08;;;;;;;71.07;43.10;;;3.20;99.90;;;;;;4974097;28;20362;-77
2022/01/20 02:25:36;;;;;;;70.37;41.90;;;3.30;99.90;;;;;;4974415;28;20440;-76
2022/01/20 02:28:05;;;;;;;70.87;42.63;;;3.30;99.90;;;;;;4973902;28;20373;-77
2022/01/20 02:30:33;;;;;;;66.40;40.23;;;3.30;99.90;;;;;;4973444;28;20114;-76
2022/01/20 02:33:03;;;;;;;70.97;43.53;;;3.30;99.90;;;;;;4973745;28;20033;-77
2022/01/20 02:35:32;;;;;;;71.23;43.37;;;3.30;99.90;;;;;;4973607;28;20484;-76
2022/01/20 02:38:36;;;;;;;71.07;43.57;;;3.20;99.90;;;;;;4972385;28;20117;-76
2022/01/20 02:46:23;;;;;;;71.00;43.30;;;3.10;99.90;;;;;;4972080;28;20062;-76
2022/01/20 02:48:48;;;;;;;72.33;43.60;;;3.20;99.90;;;;;;4973399;28;20038;-76
2022/01/20 02:51:14;;;;;;;71.03;43.30;;;3.20;99.90;;;;;;4973352;28;20023;-76
2022/01/20 02:53:40;;;;;;;69.57;42.77;;;3.20;99.90;;;;;;4972571;28;20033;-77
2022/01/20 02:56:06;;;;;;;69.00;40.90;;;3.20;99.90;;;;;;4973313;28;20019;-77
2022/01/20 02:58:32;;;;;;;64.57;41.60;;;3.20;99.90;;;;;;4973102;28;20035;-76
2022/01/20 03:00:59;;;;;;;73.83;43.70;;;3.30;99.90;;;;;;4973017;28;20027;-77
2022/01/20 03:03:25;;;;;;;69.50;42.57;;;3.30;99.90;;;;;;4973172;28;20033;-76
2022/01/20 03:05:50;;;;;;;69.03;42.73;;;3.30;99.90;;;;;;4972973;28;20506;-76
2022/01/20 03:08:16;;;;;;;65.80;41.07;;;3.30;99.90;;;;;;4973000;28;20030;-76
2022/01/20 03:10:42;;;;;;;70.20;42.60;;;3.30;99.90;;;;;;4973134;28;20035;-76
2022/01/20 03:13:08;;;;;;;74.67;43.13;;;3.30;99.90;;;;;;4971612;28;20425;-77
2022/01/20 03:15:35;;;;;;;72.83;42.43;;;3.30;99.90;;;;;;4971713;28;20466;-76
2022/01/20 03:18:03;;;;;;;74.27;43.63;;;3.30;99.90;;;;;;4971710;28;20131;-77
2022/01/20 03:20:29;;;;;;;71.13;43.93;;;3.30;99.90;;;;;;4972765;28;20069;-76
2022/01/20 03:22:54;;;;;;;74.83;46.33;;;3.20;99.90;;;;;;4971465;28;20034;-76
2022/01/20 03:25:20;;;;;;;76.47;45.77;;;3.20;99.90;;;;;;4972439;28;20388;-76
2022/01/20 03:27:46;;;;;;;74.13;44.40;;;3.10;99.90;;;;;;4972656;28;20042;-77
2022/01/20 03:30:12;;;;;;;79.30;46.47;;;3.20;99.90;;;;;;4977066;28;20035;-76
2022/01/20 03:32:38;;;;;;;83.73;47.83;;;3.20;99.90;;;;;;4976396;28;20023;-76
2022/01/20 03:35:07;;;;;;;83.57;46.00;;;3.20;99.90;;;;;;4967130;28;20037;-76
2022/01/20 03:37:34;;;;;;;86.80;48.30;;;3.20;99.90;;;;;;4967091;28;20051;-73
2022/01/20 03:39:59;;;;;;;82.83;46.97;;;3.20;99.90;;;;;;4967433;28;20027;-73
2022/01/20 03:42:26;;;;;;;83.87;47.67;;;3.20;99.90;;;;;;4967909;28;20373;-74
2022/01/20 03:44:52;;;;;;;82.03;47.60;;;3.30;99.90;;;;;;4997674;28;20035;-73
2022/01/20 03:47:19;;;;;;;79.30;47.40;;;3.30;99.90;;;;;;4968855;28;20025;-74
2022/01/20 03:52:26;;;;;;;81.43;44.60;;;3.30;99.90;;;;;;4967878;28;20038;-73
2022/01/20 03:54:51;;;;;;;79.07;45.23;;;3.30;99.90;;;;;;4970345;28;20340;-74
2022/01/20 03:57:18;;;;;;;85.50;45.93;;;3.30;99.90;;;;;;4976315;28;20022;-73
2022/01/20 03:59:45;;;;;;;82.73;46.43;;;3.20;99.90;;;;;;5005767;28;20027;-74
2022/01/20 04:02:11;;;;;;;87.93;49.80;;;3.20;99.90;;;;;;4972625;28;20113;-74
2022/01/20 04:04:36;;;;;;;92.13;47.93;;;3.20;99.90;;;;;;4974145;28;20110;-73
2022/01/20 04:07:03;;;;;;;89.00;49.00;;;3.20;99.90;;;;;;4974088;28;20054;-74
2022/01/20 04:09:29;;;;;;;86.40;47.90;;;3.20;99.90;;;;;;4973875;28;20385;-73
2022/01/20 04:11:55;;;;;;;85.53;47.63;;;3.20;99.90;;;;;;4973003;28;20026;-73
2022/01/20 04:14:23;;;;;;;79.90;45.03;;;3.20;99.90;;;;;;4972679;28;20015;-74
2022/01/20 04:19:21;;;;;;;86.23;46.97;;;3.30;99.90;;;;;;4973796;28;20058;-74
2022/01/20 04:21:48;;;;;;;83.53;46.17;;;3.20;99.90;;;;;;4973914;28;20489;-74
2022/01/20 04:24:15;;;;;;;81.83;46.70;;;3.30;99.90;;;;;;4973915;28;20098;-74
2022/01/20 04:26:43;;;;;;;92.13;48.63;;;3.20;99.90;;;;;;4973793;28;20023;-73
2022/01/20 04:29:11;;;;;;;95.93;51.40;;;3.20;99.90;;;;;;4973851;28;20255;-74
2022/01/20 04:31:38;;;;;;;93.47;48.17;;;3.10;99.90;;;;;;4975692;28;20023;-74
2022/01/20 04:34:05;;;;;;;90.93;47.03;;;3.20;99.90;;;;;;4975594;28;20034;-73
2022/01/20 04:36:34;;;;;;;95.47;48.87;;;3.20;99.90;;;;;;4975370;28;20469;-74
2022/01/20 04:39:01;;;;;;;92.07;47.87;;;3.20;99.90;;;;;;4973939;28;20034;-73
2022/01/20 04:41:29;;;;;;;97.00;50.07;;;3.20;99.90;;;;;;4974196;28;20031;-74
2022/01/20 04:43:56;;;;;;;86.83;47.70;;;3.20;99.90;;;;;;4975455;28;20495;-74
2022/01/20 04:46:39;;;;;;;81.53;45.30;;;3.20;99.90;;;;;;4975493;28;20046;-74
2022/01/20 04:57:02;;;;;;;87.17;47.43;;;3.30;99.90;;;;;;4975163;28;20030;-73
2022/01/20 04:57:21;;;;;;;89.57;46.00;;;3.20;99.90;;;;;;4975197;28;20058;-73
2022/01/20 04:59:49;;;;;;;84.73;47.30;;;3.20;99.90;;;;;;4975244;28;20023;-74
2022/01/20 05:02:15;;;;;;;82.73;46.43;;;3.30;99.90;;;;;;4975239;28;20034;-73
2022/01/20 05:04:41;;;;;;;83.77;47.10;;;3.20;99.90;;;;;;4974861;28;20069;-73
2022/01/20 05:07:09;;;;;;;81.03;45.03;;;3.30;99.90;;;;;;4975133;28;20026;-74
2022/01/20 05:09:35;;;;;;;84.47;47.87;;;3.30;99.90;;;;;;4973755;28;20100;-74
2022/01/20 05:12:05;;;;;;;72.57;44.17;;;3.30;99.90;;;;;;4973602;28;20027;-73
2022/01/20 05:14:31;;;;;;;75.73;44.30;;;3.30;99.90;;;;;;4974610;28;20158;-74
2022/01/20 05:16:58;;;;;;;81.70;47.07;;;3.30;99.90;;;;;;4974843;28;20054;-74
2022/01/20 05:19:29;;;;;;;83.43;46.77;;;3.40;99.90;;;;;;4973669;28;20023;-74
2022/01/20 05:21:55;;;;;;;81.20;44.60;;;3.40;99.90;;;;;;4974892;28;20085;-74
2022/01/20 05:24:23;;;;;;;81.13;45.10;;;3.40;99.90;;;;;;4974533;28;20062;-73
2022/01/20 05:26:51;;;;;;;80.70;45.20;;;3.40;99.90;;;;;;4973270;28;20027;-74
2022/01/20 05:29:17;;;;;;;81.37;45.97;;;3.30;99.90;;;;;;4974417;28;20030;-74
2022/01/20 05:31:43;;;;;;;91.03;50.20;;;3.30;99.90;;;;;;4974668;28;20050;-74
2022/01/20 05:34:09;;;;;;;85.30;46.87;;;3.40;99.90;;;;;;4974284;28;20050;-74
2022/01/20 05:36:34;;;;;;;80.77;46.23;;;3.40;99.90;;;;;;4974319;28;20408;-74
2022/01/20 05:39:00;;;;;;;78.27;44.90;;;3.40;99.90;;;;;;4974462;28;20030;-74
2022/01/20 05:41:26;;;;;;;74.70;43.77;;;3.40;99.90;;;;;;4974323;28;20194;-74
2022/01/20 05:43:52;;;;;;;79.03;45.90;;;3.40;99.90;;;;;;4974577;28;20062;-73
2022/01/20 05:46:22;;;;;;;78.87;44.17;;;3.40;99.90;;;;;;4974216;28;20115;-73
2022/01/20 05:48:49;;;;;;;71.00;43.50;;;3.30;99.90;;;;;;4972890;28;20231;-73
2022/01/20 05:51:15;;;;;;;74.50;44.07;;;3.40;99.90;;;;;;4973624;28;20023;-73
2022/01/20 05:53:42;;;;;;;73.50;43.30;;;3.40;99.90;;;;;;4974092;28;20481;-73
2022/01/20 05:56:08;;;;;;;77.30;44.77;;;3.40;99.90;;;;;;4973924;28;20026;-73
2022/01/20 05:58:36;;;;;;;74.07;43.83;;;3.40;99.90;;;;;;4974060;28;20030;-73
2022/01/20 06:01:06;;;;;;;71.47;43.70;;;3.50;99.90;;;;;;4973967;28;20027;-73
2022/01/20 06:03:39;;;;;;;73.37;43.83;;;3.50;99.90;;;;;;4973860;28;20053;-73
2022/01/20 06:06:07;;;;;;;73.87;43.17;;;3.50;99.90;;;;;;4974411;28;20041;-76
2022/01/20 06:08:33;;;;;;;76.07;43.60;;;3.60;99.90;;;;;;4974569;28;20030;-73
2022/01/20 06:10:59;;;;;;;81.00;45.10;;;3.60;99.90;;;;;;4974340;28;20424;-73
2022/01/20 06:13:26;;;;;;;76.50;43.97;;;3.60;99.90;;;;;;4973204;28;20062;-74
2022/01/20 06:15:51;;;;;;;76.37;43.93;;;3.60;99.90;;;;;;4973657;28;20453;-73
2022/01/20 06:18:18;;;;;;;81.20;44.30;;;3.60;99.90;;;;;;4974455;28;20065;-73
2022/01/20 06:20:44;;;;;;;72.77;41.93;;;3.70;99.90;;;;;;4972452;28;20244;-73
2022/01/20 06:23:10;;;;;;;76.33;43.97;;;3.70;99.90;;;;;;4973448;28;20110;-73
2022/01/20 06:25:37;;;;;;;78.10;43.50;;;3.70;99.90;;;;;;4973412;28;20038;-73
2022/01/20 06:28:03;;;;;;;80.47;43.13;;;3.70;99.90;;;;;;4973467;28;20073;-74
2022/01/20 06:30:31;;;;;;;74.30;43.40;;;3.70;99.90;;;;;;4973584;28;20125;-73
2022/01/20 06:32:57;;;;;;;76.50;43.93;;;3.70;99.90;;;;;;4973277;28;20022;-73
2022/01/20 06:35:23;;;;;;;72.03;43.60;;;3.70;99.90;;;;;;4973323;28;20030;-73
2022/01/20 06:37:49;;;;;;;74.63;45.50;;;3.70;99.90;;;;;;4973414;28;20110;-73
2022/01/20 06:40:15;;;;;;;75.57;43.10;;;3.70;99.90;;;;;;4973284;28;20104;-73
2022/01/20 06:42:42;;;;;;;76.53;43.10;;;3.80;99.90;;;;;;4972115;28;20023;-73
2022/01/20 06:45:12;;;;;;;72.73;44.30;;;3.80;99.90;;;;;;4973263;28;20027;-73
2022/01/20 06:47:38;;;;;;;73.67;44.37;;;3.80;99.90;;;;;;4973169;28;20019;-73
2022/01/20 06:50:05;;;;;;;76.87;42.03;;;3.80;99.90;;;;;;4972884;28;20033;-73
2022/01/20 06:52:31;;;;;;;72.47;42.80;;;3.80;99.90;;;;;;4963495;28;20054;-73
2022/01/20 06:54:58;;;;;;;73.10;42.10;;;3.80;99.90;;;;;;4953671;28;20054;-73
2022/01/20 06:57:24;;;;;;;71.37;42.70;;;3.80;99.90;;;;;;4953882;28;20034;-73
2022/01/20 06:59:50;;;;;;;75.10;43.63;;;3.70;99.90;;;;;;4953919;28;20023;-73
2022/01/20 07:02:16;;;;;;;78.43;44.33;;;3.70;99.90;;;;;;4951945;28;20027;-73
2022/01/20 07:04:43;;;;;;;66.57;40.57;;;3.80;99.90;;;;;;4953541;28;20027;-73
2022/01/20 07:07:09;;;;;;;70.93;40.20;;;3.70;99.90;;;;;;4951441;28;20366;-73
2022/01/20 07:09:35;;;;;;;70.87;39.80;;;3.70;99.90;;;;;;4953535;28;20086;-73
2022/01/20 07:12:02;;;;;;;73.57;40.00;;;3.70;99.90;;;;;;4953673;28;20031;-73
2022/01/20 07:14:29;;;;;;;75.80;41.73;;;3.70;99.90;;;;;;4968391;28;20044;-73
2022/01/20 07:16:55;;;;;;;89.77;50.37;;;3.60;99.90;;;;;;4953762;28;20032;-74
2022/01/20 07:19:21;;;;;;;94.40;53.33;;;3.60;99.90;;;;;;4953903;28;20039;-74
2022/01/20 07:21:47;;;;;;;96.93;52.93;;;3.60;99.90;;;;;;4958197;28;20489;-73
2022/01/20 07:24:13;;;;;;;91.67;51.70;;;3.60;99.90;;;;;;4973532;28;20023;-73
2022/01/20 07:26:38;;;;;;;83.93;48.77;;;3.60;99.90;;;;;;4972544;28;20035;-73
2022/01/20 07:29:04;;;;;;;85.73;48.30;;;3.60;99.90;;;;;;4973906;28;20034;-74
2022/01/20 07:31:30;;;;;;;70.73;41.37;;;3.60;99.90;;;;;;4973550;28;20023;-73
2022/01/20 07:33:56;;;;;;;75.20;42.27;;;3.50;99.90;;;;;;4972802;28;20366;-73
2022/01/20 07:36:22;;;;;;;78.57;42.60;;;3.50;99.90;;;;;;4972822;28;20050;-74
2022/01/20 07:38:48;;;;;;;77.83;45.47;;;3.50;99.90;;;;;;4973027;28;20037;-73
2022/01/20 07:41:15;;;;;;;74.63;42.93;;;3.50;99.90;;;;;;4972838;28;20109;-73
2022/01/20 07:43:41;;;;;;;88.33;49.47;;;3.30;99.90;;;;;;4971676;28;20034;-73
2022/01/20 07:46:07;;;;;;;78.80;46.90;;;3.30;99.90;;;;;;4972862;28;20041;-73
2022/01/20 07:48:33;;;;;;;85.33;47.30;;;3.40;99.90;;;;;;4972594;28;20039;-73
2022/01/20 07:51:00;;;;;;;91.87;49.73;;;3.30;99.90;;;;;;4972865;28;20069;-73
2022/01/20 07:53:26;;;;;;;86.50;48.40;;;3.30;99.90;;;;;;4972508;28;20027;-73
2022/01/20 07:55:52;;;;;;;84.97;46.53;;;3.30;99.90;;;;;;4972562;28;20033;-73
2022/01/20 07:58:18;;;;;;;85.37;47.53;;;3.30;99.90;;;;;;4971319;28;20031;-73
2022/01/20 08:00:44;;;;;;;83.73;50.43;;;3.40;99.90;;;;;;4972672;28;20070;-73
2022/01/20 08:03:10;;;;;;;83.30;48.57;;;3.40;99.90;;;;;;4972157;28;20485;-74
2022/01/20 08:05:36;;;;;;;84.63;48.67;;;3.30;99.90;;;;;;4972502;28;20041;-74
2022/01/20 08:08:02;;;;;;;80.80;47.53;;;3.30;99.90;;;;;;4972536;28;20023;-73
2022/01/20 08:10:28;;;;;;;81.37;46.37;;;3.30;99.90;;;;;;4972430;28;20027;-74
2022/01/20 08:12:54;;;;;;;81.93;47.87;;;3.30;99.90;;;;;;4970907;28;20485;-74
2022/01/20 08:15:20;;;;;;;83.57;47.33;;;3.40;99.90;;;;;;4975267;28;20030;-73
2022/01/20 08:17:47;;;;;;;83.37;48.30;;;3.40;99.90;;;;;;4976034;28;20019;-73
2022/01/20 08:20:14;;;;;;;83.30;48.20;;;3.40;99.90;;;;;;4974749;28;20049;-73
2022/01/20 08:22:39;;;;;;;89.77;49.90;;;3.50;99.90;;;;;;4974705;28;20026;-74
2022/01/20 08:25:11;;;;;;;88.90;49.37;;;3.50;99.90;;;;;;4975828;28;20023;-74
2022/01/20 08:27:38;;;;;;;86.50;50.28;;;3.60;99.90;;;;;;4974588;28;20027;-74
2022/01/20 08:30:10;;;;;;;83.50;49.33;;;3.60;99.90;;;;;;4975731;28;20485;-74
2022/01/20 08:32:36;;;;;;;86.20;48.88;;;3.60;99.90;;;;;;4975486;28;20027;-73
2022/01/20 08:35:05;;;;;;;84.83;49.20;;;3.60;99.90;;;;;;4974572;28;20026;-74
2022/01/20 08:37:32;;;;;;;87.03;49.90;;;3.70;99.90;;;;;;4975873;28;20564;-74
2022/01/20 08:39:58;;;;;;;83.53;49.17;;;3.70;99.90;;;;;;4975553;28;20030;-74
2022/01/20 08:42:24;;;;;;;86.97;49.03;;;3.70;99.90;;;;;;4975565;28;20053;-74
2022/01/20 08:44:50;;;;;;;83.27;47.67;;;3.70;99.90;;;;;;4974217;28;20027;-74
2022/01/20 08:47:17;;;;;;;80.27;46.17;;;3.80;99.90;;;;;;4967290;28;20031;-74
2022/01/20 08:49:48;;;;;;;83.73;46.40;;;3.80;99.90;;;;;;4980106;28;20034;-74
2022/01/20 08:52:18;;;;;;;86.00;47.07;;;3.90;99.90;;;;;;4966832;28;20034;-74
2022/01/20 08:54:47;;;;;;;82.70;47.63;;;3.90;99.90;;;;;;4964952;28;20012;-74
2022/01/20 08:57:16;;;;;;;78.30;47.20;;;3.90;99.90;;;;;;4981278;28;20026;-74
2022/01/20 08:59:42;;;;;;;80.37;46.83;;;4.00;99.90;;;;;;4967261;28;20364;-73
2022/01/20 09:02:09;;;;;;;78.43;45.57;;;4.00;99.90;;;;;;4971788;28;20023;-74
2022/01/20 09:04:35;;;;;;;84.37;48.40;;;4.00;99.90;;;;;;4975568;28;20519;-74
2022/01/20 09:07:01;;;;;;;79.53;46.17;;;4.00;99.90;;;;;;4974316;28;20113;-74
2022/01/20 09:09:27;;;;;;;85.10;47.77;;;4.00;99.90;;;;;;4975489;28;20105;-74
2022/01/20 09:17:25;;;;;;;75.03;44.80;;;4.20;99.90;;;;;;4972695;28;20038;-74
2022/01/20 09:19:52;;;;;;;81.80;47.13;;;4.20;99.90;;;;;;4975408;28;20022;-74
2022/01/20 09:22:22;;;;;;;78.13;44.70;;;4.30;99.90;;;;;;4974062;28;20439;-76
2022/01/20 09:24:48;;;;;;;85.30;45.00;;;4.30;99.90;;;;;;4974103;28;20137;-73
2022/01/20 09:27:14;;;;;;;81.00;43.87;;;4.30;99.90;;;;;;4973838;28;20027;-73
2022/01/20 09:29:41;;;;;;;79.87;43.83;;;4.30;99.90;;;;;;4974206;28;20488;-73
2022/01/20 09:32:10;;;;;;;83.27;45.30;;;4.40;99.90;;;;;;4975521;28;20025;-73
2022/01/20 09:34:36;;;;;;;81.75;45.20;;;4.40;99.90;;;;;;4973573;28;20436;-73
2022/01/20 09:37:02;;;;;;;77.25;43.90;;;4.40;99.90;;;;;;4974513;28;20042;-73
2022/01/20 09:39:28;;;;;;;78.57;44.30;;;4.40;99.90;;;;;;4972447;28;20476;-73
2022/01/20 09:41:54;;;;;;;77.13;42.28;;;4.50;99.90;;;;;;4974280;28;20027;-73
2022/01/20 09:44:20;;;;;;;70.82;38.95;;;4.60;99.90;;;;;;4973982;28;20031;-73
2022/01/20 09:46:46;;;;;;;71.20;40.60;;;4.60;99.90;;;;;;4974015;28;20037;-73
2022/01/20 09:49:13;;;;;;;73.47;39.33;;;4.60;99.90;;;;;;4972585;28;20061;-73
2022/01/20 09:51:40;;;;;;;77.13;40.47;;;4.60;99.90;;;;;;4972034;28;20117;-73
2022/01/20 09:54:06;;;;;;;80.17;40.10;;;4.60;99.90;;;;;;4973775;28;20485;-73
2022/01/20 09:56:33;;;;;;;74.80;41.13;;;4.60;99.90;;;;;;4971398;28;20042;-73
2022/01/20 09:58:59;;;;;;;78.03;40.95;;;4.60;99.90;;;;;;4974882;28;20543;-73
2022/01/20 10:01:39;;;;;;;74.45;39.95;;;4.60;99.90;;;;;;4974619;28;20484;-74
2022/01/20 10:04:16;;;;;;;70.22;41.13;;;4.60;99.90;;;;;;4974629;28;20481;-73
2022/01/20 10:06:59;;;;;;;80.10;44.13;;;4.70;99.90;;;;;;4972504;28;20034;-73
2022/01/20 10:09:34;;;;;;;78.15;41.22;;;4.70;99.90;;;;;;4980161;28;20026;-73
2022/01/20 10:12:01;;;;;;;77.80;43.58;;;4.80;99.90;;;;;;4967265;28;20377;-73
2022/01/20 10:14:41;;;;;;;78.60;42.55;;;4.80;99.90;;;;;;4973939;28;20126;-73
2022/01/20 10:17:19;;;;;;;84.10;43.42;;;4.80;99.90;;;;;;4974655;28;20053;-73
2022/01/20 10:19:45;;;;;;;85.13;43.47;;;4.80;99.90;;;;;;4974764;28;20461;-73
2022/01/20 10:22:14;;;;;;;85.05;43.15;;;4.80;99.90;;;;;;4973189;28;20130;-73
2022/01/20 10:24:40;;;;;;;75.30;41.63;;;4.90;99.90;;;;;;4974159;28;20062;-73
2022/01/20 10:27:11;;;;;;;82.00;40.97;;;4.90;99.90;;;;;;4972591;28;20031;-73
2022/01/20 10:29:37;;;;;;;87.80;44.33;;;4.90;99.90;;;;;;4970718;28;20563;-73
2022/01/20 10:32:04;;;;;;;77.47;42.90;;;5.00;99.90;;;;;;4972102;28;20023;-73
2022/01/20 10:34:35;;;;;;;84.97;42.72;;;5.00;99.90;;;;;;4968220;28;20019;-73
2022/01/20 10:37:06;;;;;;;80.68;40.17;;;5.10;99.90;;;;;;4971109;28;20571;-73
2022/01/20 10:39:40;;;;;;;85.47;41.70;;;5.10;99.90;;;;;;4973452;28;20041;-73
2022/01/20 10:42:12;;;;;;;76.40;39.58;;;5.20;99.90;;;;;;4972736;28;20172;-73
2022/01/20 10:44:55;;;;;;;;;;;5.20;99.90;;;;;;4970214;28;20031;-73
2022/01/20 10:47:26;;;;;;;79.85;43.50;;;5.30;99.90;;;;;;4970397;28;19906;-73
2022/01/20 10:49:52;;;;;;;83.30;47.03;;;5.40;99.90;;;;;;4969897;28;20085;-73
2022/01/20 10:52:20;;;;;;;83.72;41.17;;;5.30;99.90;;;;;;4969965;28;20074;-73
2022/01/20 10:54:54;;;;;;;83.13;42.35;;;5.30;99.90;;;;;;4963900;28;20486;-73
2022/01/20 10:57:31;;;;;;;86.90;41.70;;;5.30;99.90;;;;;;4970976;28;20045;-73
2022/01/20 10:59:59;;;;;;;81.78;41.95;;;5.40;99.90;;;;;;4974140;28;20409;-73
2022/01/20 11:02:29;;;;;;;86.68;45.05;;;5.50;99.90;;;;;;4974057;28;20028;-73
2022/01/20 11:04:58;;;;;;;87.10;45.58;;;5.40;99.90;;;;;;4974403;28;20552;-73
2022/01/20 11:07:24;;;;;;;83.57;42.70;;;5.50;99.90;;;;;;4974092;28;20078;-73
2022/01/20 11:09:59;;;;;;;82.07;42.60;;;5.50;99.90;;;;;;4974094;28;20026;-73
2022/01/20 11:12:25;;;;;;;89.15;43.08;;;5.50;99.90;;;;;;4972670;28;20026;-73
2022/01/20 11:14:52;;;;;;;92.03;44.75;;;5.50;99.90;;;;;;4973919;28;20034;-73
2022/01/20 11:17:22;;;;;;;94.47;44.10;;;5.60;99.90;;;;;;4974224;28;20051;-73
2022/01/20 11:19:49;;;;;;;92.70;47.20;;;5.60;99.90;;;;;;4973925;28;20462;-73
2022/01/20 11:22:17;;;;;;;91.45;45.22;;;5.70;99.90;;;;;;4973899;28;20027;-73
2022/01/20 11:24:43;;;;;;;91.43;46.13;;;5.70;99.90;;;;;;4973849;28;20621;-73
2022/01/20 11:27:13;;;;;;;99.63;47.15;;;5.70;99.90;;;;;;4974075;28;20162;-73
2022/01/20 11:29:48;;;;;;;87.93;45.95;;;5.80;99.90;;;;;;4973827;28;20115;-73
2022/01/20 11:32:17;;;;;;;95.32;47.78;;;5.70;99.90;;;;;;4972534;28;20054;-73
2022/01/20 11:35:04;;;;;;;96.93;47.20;;;5.70;99.90;;;;;;4972582;28;20031;-73
2022/01/20 11:37:35;;;;;;;106.55;48.65;;;5.80;99.90;;;;;;4972278;28;20401;-73
2022/01/20 11:40:18;;;;;;;97.05;48.38;;;5.70;99.90;;;;;;4973702;28;20110;-73
2022/01/20 11:43:11;;;;;;;106.43;50.72;;;5.70;99.90;;;;;;4973706;28;20488;-73
2022/01/20 11:45:50;;;;;;;109.75;51.70;;;5.70;99.90;;;;;;4972363;28;20022;-73
2022/01/20 11:48:24;;;;;;;103.18;49.75;;;5.70;99.90;;;;;;4972721;28;20065;-73
2022/01/20 11:51:07;;;;;;;110.13;51.00;;;5.70;99.90;;;;;;4977615;28;20469;-73
2022/01/20 11:53:41;;;;;;;103.93;49.50;;;5.70;99.90;;;;;;4977477;28;20077;-73
2022/01/20 11:56:07;;;;;;;107.65;53.80;;;5.60;99.90;;;;;;4977566;28;20436;-73
2022/01/20 11:58:32;;;;;;;109.57;53.92;;;5.50;99.90;;;;;;4977202;28;20054;-73
2022/01/20 12:01:04;;;;;;;110.45;54.45;;;5.50;99.90;;;;;;4977056;28;20018;-73
2022/01/20 12:03:31;;;;;;;107.57;53.80;;;5.50;99.90;;;;;;4974304;28;20027;-73
2022/01/20 12:06:03;;;;;;;115.53;54.38;;;5.50;99.90;;;;;;4972919;28;20031;-74
2022/01/20 12:08:29;;;;;;;109.47;54.22;;;5.50;99.90;;;;;;4974022;28;20031;-73
2022/01/20 12:11:05;;;;;;;117.63;56.15;;;5.50;99.90;;;;;;4973875;28;20057;-73
2022/01/20 12:13:31;;;;;;;115.13;56.75;;;5.60;99.90;;;;;;4973939;28;20054;-73
2022/01/20 12:16:02;;;;;;;125.85;58.33;;;5.50;99.90;;;;;;4974317;28;20046;-73
2022/01/20 12:18:29;;;;;;;121.03;56.15;;;5.50;99.90;;;;;;4973054;28;20038;-73
2022/01/20 12:20:58;;;;;;;123.97;59.85;;;5.60;99.90;;;;;;4975991;28;20500;-73
2022/01/20 12:23:25;;;;;;;132.07;62.88;;;5.60;99.90;;;;;;4974366;28;20030;-73
2022/01/20 12:25:51;;;;;;;127.13;60.55;;;5.60;99.90;;;;;;4974470;28;20497;-74
2022/01/20 12:28:17;;;;;;;128.27;63.28;;;5.60;99.90;;;;;;4975825;28;20035;-74
2022/01/20 12:30:47;;;;;;;123.35;58.08;;;5.60;99.90;;;;;;4975712;28;20022;-74
2022/01/20 12:33:16;;;;;;;128.18;61.85;;;5.60;99.90;;;;;;4974282;28;20015;-74
2022/01/20 12:35:48;;;;;;;134.43;62.25;;;5.60;99.90;;;;;;4975532;28;20053;-74
2022/01/20 12:38:30;;;;;;;127.43;58.65;;;5.70;99.90;;;;;;4975463;28;20338;-74
2022/01/20 12:41:09;;;;;;;132.90;62.05;;;5.70;99.90;;;;;;4974354;28;20031;-74
2022/01/20 12:43:48;;;;;;;128.95;62.90;;;5.70;99.90;;;;;;4976255;28;20026;-74
2022/01/20 12:46:29;;;;;;;128.15;61.83;;;5.70;99.90;;;;;;4974490;28;20069;-74
2022/01/20 12:49:04;;;;;;;130.30;60.72;;;5.70;99.90;;;;;;4976065;28;20023;-74
2022/01/20 12:51:34;;;;;;;128.73;60.90;;;5.70;99.90;;;;;;4975874;28;20031;-74
2022/01/20 12:54:08;;;;;;;137.60;63.80;;;5.80;99.90;;;;;;4974032;28;20031;-74
2022/01/20 12:56:44;;;;;;;130.73;62.88;;;5.80;99.90;;;;;;4974844;28;20027;-74
2022/01/20 12:59:11;;;;;;;134.40;64.07;;;5.90;99.90;;;;;;4973859;28;20039;-74
2022/01/20 13:01:48;;;;;;;140.80;63.42;;;6.00;99.90;;;;;;4973938;28;20039;-75
2022/01/20 13:04:16;;;;;;;138.98;60.63;;;6.00;99.90;;;;;;4974976;28;20023;-74
2022/01/20 13:06:53;;;;;;;132.18;61.95;;;6.10;99.90;;;;;;4973791;28;20110;-75
2022/01/20 13:09:21;;;;;;;142.40;65.03;;;6.10;99.90;;;;;;4974979;28;20023;-73
2022/01/20 13:11:55;;;;;;;132.07;61.10;;;6.10;99.90;;;;;;4974953;28;20101;-73
2022/01/20 13:14:36;;;;;;;147.27;65.35;;;6.20;99.90;;;;;;4973776;28;20046;-72
2022/01/20 13:17:03;;;;;;;137.90;62.72;;;6.20;99.90;;;;;;4973552;28;20480;-73
2022/01/20 13:19:39;;;;;;;147.88;63.22;;;6.20;99.90;;;;;;4974860;28;20035;-73
2022/01/20 13:22:18;;;;;;;144.82;64.05;;;6.20;99.90;;;;;;4973417;28;20030;-73
2022/01/20 13:24:44;;;;;;;145.38;65.25;;;6.30;99.90;;;;;;4974785;28;20054;-73
2022/01/20 13:27:12;;;;;;;152.80;64.13;;;6.30;99.90;;;;;;4974858;28;20454;-73
2022/01/20 13:29:42;;;;;;;145.18;63.30;;;6.40;99.90;;;;;;4974575;28;20508;-73
2022/01/20 13:32:08;;;;;;;142.10;63.35;;;6.40;99.90;;;;;;4974425;28;20536;-73
2022/01/20 13:34:34;;;;;;;139.88;60.00;;;6.40;99.90;;;;;;4974584;28;20102;-73
2022/01/20 13:37:02;;;;;;;145.07;62.53;;;6.40;99.90;;;;;;4974519;28;20046;-73
2022/01/20 13:39:31;;;;;;;154.05;64.95;;;6.40;99.90;;;;;;4974536;28;20027;-73
2022/01/20 13:42:10;;;;;;;151.95;65.00;;;6.50;99.90;;;;;;4974277;28;20037;-73
2022/01/20 13:47:20;;;;;;;131.65;57.60;;;6.50;99.90;;;;;;4974714;28;20567;-73
2022/01/20 13:49:48;;;;;;;137.05;60.83;;;6.50;99.90;;;;;;4974230;28;20027;-73